createdAt,value
2023-02-12T00:01:55.950Z,54.28
2023-02-12T00:06:58.907Z,54.60
2023-02-12T00:12:03.530Z,53.82
2023-02-12T00:17:06.480Z,54.31
2023-02-12T00:22:09.429Z,52.83
2023-02-12T00:27:13.815Z,52.59
2023-02-12T00:32:19.708Z,51.49
2023-02-12T00:37:22.653Z,50.81
2023-02-12T00:42:27.079Z,50.03
2023-02-12T00:47:30.053Z,49.58
2023-02-12T00:52:33.023Z,50.00
2023-02-12T00:57:37.356Z,49.94
2023-02-12T01:02:40.335Z,49.22
2023-02-12T01:07:43.309Z,49.70
2023-02-12T01:12:48.141Z,48.98
2023-02-12T01:17:52.713Z,49.07
2023-02-12T01:22:55.692Z,49.06
2023-02-12T01:28:00.021Z,49.18
2023-02-12T01:33:03.078Z,49.06
2023-02-12T01:38:06.081Z,49.40
2023-02-12T01:43:13.312Z,48.97
2023-02-12T01:48:17.728Z,48.90
2023-02-12T01:53:21.945Z,48.68
2023-02-12T01:58:28.272Z,48.40
2023-02-12T02:03:31.413Z,48.24
2023-02-12T02:08:35.271Z,48.37
2023-02-12T02:14:11.577Z,48.38
2023-02-12T02:19:20.982Z,48.16
2023-02-12T02:24:46.160Z,48.31
2023-02-12T02:30:16.064Z,48.50
2023-02-12T02:35:26.955Z,48.05
2023-02-12T02:40:34.569Z,48.46
2023-02-12T02:45:40.320Z,48.42
2023-02-12T02:50:47.625Z,48.78
2023-02-12T02:55:53.757Z,48.96
2023-02-12T03:00:59.730Z,49.38
2023-02-12T03:06:05.615Z,48.92
2023-02-12T03:11:23.519Z,49.08
2023-02-12T03:16:27.800Z,49.29
2023-02-12T03:21:35.247Z,49.15
2023-02-12T03:26:41.868Z,49.00
2023-02-12T03:31:52.585Z,49.18
2023-02-12T03:36:58.557Z,49.04
2023-02-12T03:42:03.886Z,49.20
2023-02-12T03:47:14.151Z,49.38
2023-02-12T03:52:18.549Z,49.81
2023-02-12T03:57:22.237Z,49.70
2023-02-12T04:02:25.199Z,49.67
2023-02-12T04:07:29.535Z,50.09
2023-02-12T04:12:35.728Z,49.31
2023-02-12T04:17:46.900Z,50.42
2023-02-12T04:22:55.926Z,49.83
2023-02-12T04:28:03.292Z,49.75
2023-02-12T04:33:07.379Z,49.67
2023-02-12T04:38:15.381Z,50.10
2023-02-12T04:43:27.664Z,50.21
2023-02-12T04:48:30.689Z,50.11
2023-02-12T04:53:35.007Z,50.15
2023-02-12T04:58:38.342Z,50.48
2023-02-12T05:03:41.282Z,50.74
2023-02-12T05:08:45.602Z,50.45
2023-02-12T05:13:50.290Z,50.80
2023-02-12T05:18:53.205Z,50.60
2023-02-12T05:23:57.647Z,51.00
2023-02-12T05:29:00.636Z,50.78
2023-02-12T05:34:03.593Z,50.65
2023-02-12T05:39:08.619Z,50.70
2023-02-12T05:44:12.746Z,50.65
2023-02-12T05:49:15.649Z,50.44
2023-02-12T05:54:20.042Z,50.79
2023-02-12T05:59:24.192Z,51.16
2023-02-12T06:04:28.456Z,50.37
2023-02-12T06:09:33.135Z,50.33
2023-02-12T06:14:36.247Z,50.47
2023-02-12T06:19:39.155Z,50.19
2023-02-12T06:24:43.492Z,50.37
2023-02-12T06:29:46.600Z,50.37
2023-02-12T06:34:49.665Z,50.45
2023-02-12T06:39:54.000Z,50.58
2023-02-12T06:44:57.001Z,50.71
2023-02-12T06:49:59.975Z,50.49
2023-02-12T06:55:04.495Z,51.02
2023-02-12T07:00:08.091Z,50.69
2023-02-12T07:05:11.121Z,50.67
2023-02-12T07:10:15.602Z,50.90
2023-02-12T07:15:18.696Z,51.22
2023-02-12T07:20:21.724Z,51.10
2023-02-12T07:25:26.067Z,51.41
2023-02-12T07:30:29.063Z,51.30
2023-02-12T07:35:32.102Z,51.63
2023-02-12T07:40:36.425Z,51.59
2023-02-12T07:45:39.462Z,51.74
2023-02-12T07:50:42.499Z,51.90
2023-02-12T07:55:46.908Z,52.27
2023-02-12T08:00:49.846Z,52.26
2023-02-12T08:05:52.787Z,52.29
2023-02-12T08:10:58.696Z,51.80
2023-02-12T08:16:02.106Z,51.88
2023-02-12T08:21:05.935Z,51.69
2023-02-12T08:26:11.714Z,52.01
2023-02-12T08:31:15.705Z,51.98
2023-02-12T08:36:20.226Z,51.15
2023-02-12T08:41:25.342Z,50.80
2023-02-12T08:46:29.511Z,49.99
2023-02-12T08:51:33.392Z,49.97
2023-02-12T08:56:37.758Z,50.30
2023-02-12T09:01:42.330Z,50.18
2023-02-12T09:06:45.652Z,49.78
2023-02-12T09:11:50.195Z,49.44
2023-02-12T09:16:53.732Z,48.68
2023-02-12T09:21:57.219Z,47.79
2023-02-12T09:27:01.676Z,48.49
2023-02-12T09:32:06.853Z,48.52
2023-02-12T09:37:09.947Z,48.89
2023-02-12T09:42:22.612Z,49.37
2023-02-12T09:47:28.517Z,48.65
2023-02-12T09:52:32.065Z,49.20
2023-02-12T09:57:37.697Z,48.78
2023-02-12T10:02:41.633Z,49.27
2023-02-12T10:07:56.093Z,48.85
2023-02-12T10:13:05.438Z,48.83
2023-02-12T10:18:25.960Z,49.00
2023-02-12T10:23:48.089Z,48.96
2023-02-12T10:28:53.109Z,48.79
2023-02-12T10:33:57.363Z,48.86
2023-02-12T10:39:03.011Z,48.44
2023-02-12T10:44:08.779Z,47.74
2023-02-12T10:49:13.371Z,48.15
2023-02-12T10:54:34.747Z,47.42
2023-02-12T10:59:39.240Z,47.03
2023-02-12T11:04:42.268Z,47.42
2023-02-12T11:09:46.681Z,47.12
2023-02-12T11:14:52.055Z,46.45
2023-02-12T11:20:22.700Z,46.42
2023-02-12T11:25:26.529Z,45.70
2023-02-12T11:30:31.171Z,43.84
2023-02-12T11:35:36.284Z,41.66
2023-02-12T11:40:39.331Z,38.54
2023-02-12T11:45:46.585Z,36.72
2023-02-12T11:50:50.271Z,36.55
2023-02-12T11:55:57.362Z,35.64
2023-02-12T12:01:07.048Z,35.12
2023-02-12T12:06:19.602Z,35.02
2023-02-12T12:11:25.765Z,35.26
2023-02-12T12:16:50.214Z,34.45
2023-02-12T12:21:58.827Z,35.50
2023-02-12T12:27:14.455Z,36.94
2023-02-12T12:32:19.710Z,37.98
2023-02-12T12:37:32.601Z,37.75
2023-02-12T12:42:48.363Z,38.44
2023-02-12T12:47:59.396Z,38.88
2023-02-12T12:53:08.552Z,39.48
2023-02-12T12:58:14.304Z,40.04
2023-02-12T13:03:32.090Z,39.95
2023-02-12T13:08:52.642Z,40.70
2023-02-12T13:14:01.161Z,41.66
2023-02-12T13:19:08.762Z,41.93
2023-02-12T13:24:19.418Z,42.04
2023-02-12T13:29:24.778Z,42.49
2023-02-12T13:34:28.843Z,42.88
2023-02-12T13:39:36.107Z,42.71
2023-02-12T13:44:45.061Z,42.50
2023-02-12T13:49:51.624Z,42.48
2023-02-12T13:55:00.271Z,42.34
2023-02-12T14:00:08.535Z,42.99
2023-02-12T14:05:22.733Z,42.88
2023-02-12T14:10:29.342Z,43.04
2023-02-12T14:15:34.396Z,43.02
2023-02-12T14:20:38.269Z,42.91
2023-02-12T14:25:43.387Z,43.26
2023-02-12T14:30:46.509Z,43.21
2023-02-12T14:35:51.403Z,43.01
2023-02-12T14:41:34.227Z,42.91
2023-02-12T14:46:47.790Z,42.98
2023-02-12T14:51:55.063Z,43.17
2023-02-12T14:57:01.859Z,43.18
2023-02-12T15:02:05.512Z,43.17
2023-02-12T15:07:10.598Z,43.17
2023-02-12T15:12:18.575Z,42.79
2023-02-12T15:17:22.465Z,42.80
2023-02-12T15:22:26.512Z,42.77
2023-02-12T15:27:30.927Z,43.01
2023-02-12T15:32:37.635Z,43.08
2023-02-12T15:37:41.481Z,43.01
2023-02-12T15:42:54.170Z,43.26
2023-02-12T15:48:00.742Z,43.13
2023-02-12T15:53:04.320Z,43.38
2023-02-12T15:58:20.135Z,43.71
2023-02-12T16:03:24.659Z,44.00
2023-02-12T16:08:27.720Z,43.71
2023-02-12T16:13:33.632Z,44.04
2023-02-12T16:18:36.518Z,44.04
2023-02-12T16:23:39.663Z,44.43
2023-02-12T16:28:47.472Z,44.13
2023-02-12T16:33:54.123Z,44.21
2023-02-12T16:38:57.724Z,44.45
2023-02-12T16:44:19.018Z,44.45
2023-02-12T16:49:24.451Z,43.96
2023-02-12T16:54:28.953Z,44.02
2023-02-12T16:59:31.823Z,44.49
2023-02-12T17:04:36.154Z,44.54
2023-02-12T17:09:39.043Z,44.48
2023-02-12T17:14:41.955Z,44.67
2023-02-12T17:19:46.222Z,44.68
2023-02-12T17:24:51.669Z,44.84
2023-02-12T17:29:54.553Z,44.59
2023-02-12T17:34:58.849Z,45.00
2023-02-12T17:40:02.552Z,45.12
2023-02-12T17:45:05.504Z,45.09
2023-02-12T17:50:11.637Z,45.54
2023-02-12T17:55:15.295Z,45.15
2023-02-12T18:00:18.805Z,45.41
2023-02-12T18:05:23.051Z,45.42
2023-02-12T18:10:26.019Z,46.00
2023-02-12T18:15:28.851Z,46.10
2023-02-12T18:20:33.416Z,45.75
2023-02-12T18:25:36.375Z,45.90
2023-02-12T18:30:42.913Z,45.99
2023-02-12T18:35:47.229Z,46.21
2023-02-12T18:40:50.133Z,45.75
2023-02-12T18:45:53.017Z,46.00
2023-02-12T18:51:01.201Z,46.36
2023-02-12T18:56:05.077Z,46.39
2023-02-12T19:01:13.537Z,46.19
2023-02-12T19:06:17.892Z,46.45
2023-02-12T19:11:20.758Z,46.93
2023-02-12T19:16:24.703Z,46.65
2023-02-12T19:21:28.974Z,46.92
2023-02-12T19:26:32.291Z,46.69
2023-02-12T19:31:36.411Z,46.66
2023-02-12T19:36:40.800Z,46.77
2023-02-12T19:41:43.665Z,46.56
2023-02-12T19:46:46.954Z,47.18
2023-02-12T19:51:51.315Z,47.17
2023-02-12T19:56:55.481Z,46.97
2023-02-12T20:01:58.328Z,46.58
2023-02-12T20:07:02.604Z,47.06
2023-02-12T20:12:05.620Z,47.19
2023-02-12T20:17:08.475Z,46.67
2023-02-12T20:22:12.766Z,46.92
2023-02-12T20:27:15.607Z,47.29
2023-02-12T20:32:18.496Z,46.90
2023-02-12T20:37:22.759Z,47.38
2023-02-12T20:42:25.689Z,47.50
2023-02-12T20:47:29.595Z,47.04
2023-02-12T20:52:33.831Z,47.24
2023-02-12T20:57:36.741Z,47.73
2023-02-12T21:02:39.743Z,47.69
2023-02-12T21:07:45.658Z,47.68
2023-02-12T21:12:48.615Z,47.54
2023-02-12T21:17:52.742Z,47.58
2023-02-12T21:22:57.025Z,47.90
2023-02-12T21:28:00.047Z,47.81
2023-02-12T21:33:02.998Z,47.67
2023-02-12T21:38:07.341Z,47.70
2023-02-12T21:43:10.507Z,47.88
2023-02-12T21:48:13.443Z,47.87
2023-02-12T21:53:18.472Z,47.72
2023-02-12T21:58:21.534Z,47.78
2023-02-12T22:03:24.466Z,47.08
2023-02-12T22:08:29.000Z,47.91
2023-02-12T22:13:32.344Z,48.02
2023-02-12T22:18:35.309Z,47.66
2023-02-12T22:23:39.949Z,47.77
2023-02-12T22:28:44.051Z,47.30
2023-02-12T22:33:47.220Z,47.78
2023-02-12T22:38:51.551Z,47.79
2023-02-12T22:43:54.533Z,48.38
2023-02-12T22:48:57.414Z,47.79
2023-02-12T22:54:01.746Z,47.88
2023-02-12T22:59:04.722Z,47.75
2023-02-12T23:04:07.780Z,48.09
2023-02-12T23:09:13.320Z,47.88
2023-02-12T23:14:16.283Z,47.95
2023-02-12T23:19:19.258Z,48.25
2023-02-12T23:24:24.825Z,48.31
2023-02-12T23:29:27.815Z,48.84
2023-02-12T23:34:30.800Z,48.66
2023-02-12T23:39:35.203Z,48.38
2023-02-12T23:44:38.987Z,48.37
2023-02-12T23:49:41.952Z,48.26
2023-02-12T23:54:46.296Z,48.65
2023-02-12T23:59:49.219Z,48.58
